sensor_id;sensor_type;location;lat;lon;timestamp;temperature;humidity
5466;DHT22;2755;50.728;7.108;2023-06-14T00:00:15;18.10;1.00
5466;DHT22;2755;50.728;7.108;2023-06-14T00:07:38;17.50;1.00
5466;DHT22;2755;50.728;7.108;2023-06-14T00:10:08;17.10;1.00
5466;DHT22;2755;50.728;7.108;2023-06-14T00:12:34;16.20;1.00
5466;DHT22;2755;50.728;7.108;2023-06-14T00:15:00;17.40;1.00
5466;DHT22;2755;50.728;7.108;2023-06-14T00:17:27;17.50;1.00
5466;DHT22;2755;50.728;7.108;2023-06-14T00:19:56;17.60;1.00
5466;DHT22;2755;50.728;7.108;2023-06-14T00:22:22;17.50;1.00
5466;DHT22;2755;50.728;7.108;2023-06-14T00:24:50;16.90;1.00
5466;DHT22;2755;50.728;7.108;2023-06-14T00:27:16;17.30;1.00
5466;DHT22;2755;50.728;7.108;2023-06-14T00:29:41;18.10;1.00
5466;DHT22;2755;50.728;7.108;2023-06-14T00:32:07;18.10;1.00
5466;DHT22;2755;50.728;7.108;2023-06-14T00:36:59;17.30;1.00
5466;DHT22;2755;50.728;7.108;2023-06-14T00:39:25;17.80;1.00
5466;DHT22;2755;50.728;7.108;2023-06-14T00:41:51;17.40;1.00
5466;DHT22;2755;50.728;7.108;2023-06-14T00:44:17;17.30;1.00
5466;DHT22;2755;50.728;7.108;2023-06-14T00:46:43;17.50;1.00
5466;DHT22;2755;50.728;7.108;2023-06-14T00:49:09;17.70;1.00
5466;DHT22;2755;50.728;7.108;2023-06-14T00:51:36;17.70;1.00
5466;DHT22;2755;50.728;7.108;2023-06-14T00:56:29;18.10;1.00
5466;DHT22;2755;50.728;7.108;2023-06-14T00:58:56;17.70;1.00
5466;DHT22;2755;50.728;7.108;2023-06-14T01:01:21;17.50;1.00
5466;DHT22;2755;50.728;7.108;2023-06-14T01:03:47;18.00;1.00
5466;DHT22;2755;50.728;7.108;2023-06-14T01:09:09;17.50;1.00
5466;DHT22;2755;50.728;7.108;2023-06-14T01:14:07;17.50;1.00
5466;DHT22;2755;50.728;7.108;2023-06-14T01:16:35;17.30;1.00
5466;DHT22;2755;50.728;7.108;2023-06-14T01:19:01;17.10;1.00
5466;DHT22;2755;50.728;7.108;2023-06-14T01:21:27;17.10;1.00
5466;DHT22;2755;50.728;7.108;2023-06-14T01:23:54;17.10;1.00
5466;DHT22;2755;50.728;7.108;2023-06-14T01:26:22;17.00;1.00
5466;DHT22;2755;50.728;7.108;2023-06-14T01:28:48;17.20;1.00
5466;DHT22;2755;50.728;7.108;2023-06-14T01:31:19;16.60;1.00
5466;DHT22;2755;50.728;7.108;2023-06-14T01:33:45;16.60;1.00
5466;DHT22;2755;50.728;7.108;2023-06-14T01:36:12;16.40;1.00
5466;DHT22;2755;50.728;7.108;2023-06-14T01:38:39;16.70;1.00
5466;DHT22;2755;50.728;7.108;2023-06-14T01:41:05;16.20;1.00
5466;DHT22;2755;50.728;7.108;2023-06-14T01:43:32;17.00;1.00
5466;DHT22;2755;50.728;7.108;2023-06-14T01:46:00;15.80;1.00
5466;DHT22;2755;50.728;7.108;2023-06-14T01:48:26;16.10;1.00
5466;DHT22;2755;50.728;7.108;2023-06-14T01:50:52;16.00;1.00
5466;DHT22;2755;50.728;7.108;2023-06-14T01:53:18;16.10;1.00
5466;DHT22;2755;50.728;7.108;2023-06-14T01:55:43;16.40;1.00
5466;DHT22;2755;50.728;7.108;2023-06-14T01:58:10;14.70;1.00
5466;DHT22;2755;50.728;7.108;2023-06-14T02:00:36;15.80;1.00
5466;DHT22;2755;50.728;7.108;2023-06-14T02:03:02;15.80;1.00
5466;DHT22;2755;50.728;7.108;2023-06-14T02:05:29;15.80;1.00
5466;DHT22;2755;50.728;7.108;2023-06-14T02:07:55;16.00;1.00
5466;DHT22;2755;50.728;7.108;2023-06-14T02:10:21;15.90;1.00
5466;DHT22;2755;50.728;7.108;2023-06-14T02:12:46;15.70;1.00
5466;DHT22;2755;50.728;7.108;2023-06-14T02:15:12;16.20;1.00
5466;DHT22;2755;50.728;7.108;2023-06-14T02:17:42;15.70;1.00
5466;DHT22;2755;50.728;7.108;2023-06-14T02:20:08;15.70;1.00
5466;DHT22;2755;50.728;7.108;2023-06-14T02:22:34;15.50;1.00
5466;DHT22;2755;50.728;7.108;2023-06-14T02:25:00;15.60;1.00
5466;DHT22;2755;50.728;7.108;2023-06-14T02:27:26;15.70;1.00
5466;DHT22;2755;50.728;7.108;2023-06-14T02:29:51;14.50;1.00
5466;DHT22;2755;50.728;7.108;2023-06-14T02:32:17;15.80;1.00
5466;DHT22;2755;50.728;7.108;2023-06-14T02:34:42;15.90;1.00
5466;DHT22;2755;50.728;7.108;2023-06-14T02:37:08;14.80;1.00
5466;DHT22;2755;50.728;7.108;2023-06-14T02:39:34;15.80;1.00
5466;DHT22;2755;50.728;7.108;2023-06-14T02:42:01;15.40;1.00
5466;DHT22;2755;50.728;7.108;2023-06-14T02:44:27;15.40;1.00
5466;DHT22;2755;50.728;7.108;2023-06-14T02:46:56;16.00;1.00
5466;DHT22;2755;50.728;7.108;2023-06-14T02:49:21;15.20;1.00
5466;DHT22;2755;50.728;7.108;2023-06-14T02:51:47;14.80;1.00
5466;DHT22;2755;50.728;7.108;2023-06-14T02:54:13;15.20;1.00
5466;DHT22;2755;50.728;7.108;2023-06-14T02:56:39;14.80;1.00
5466;DHT22;2755;50.728;7.108;2023-06-14T03:01:30;14.70;1.00
5466;DHT22;2755;50.728;7.108;2023-06-14T03:04:04;15.10;1.00
5466;DHT22;2755;50.728;7.108;2023-06-14T03:06:30;14.80;1.00
5466;DHT22;2755;50.728;7.108;2023-06-14T03:08:56;14.90;1.00
5466;DHT22;2755;50.728;7.108;2023-06-14T03:11:25;14.70;1.00
5466;DHT22;2755;50.728;7.108;2023-06-14T03:13:51;14.60;1.00
5466;DHT22;2755;50.728;7.108;2023-06-14T03:18:51;14.70;1.00
5466;DHT22;2755;50.728;7.108;2023-06-14T03:21:17;15.00;1.00
5466;DHT22;2755;50.728;7.108;2023-06-14T03:23:43;14.60;1.00
5466;DHT22;2755;50.728;7.108;2023-06-14T03:26:09;15.00;1.00
5466;DHT22;2755;50.728;7.108;2023-06-14T03:31:04;15.00;1.00
5466;DHT22;2755;50.728;7.108;2023-06-14T03:33:29;15.00;1.00
5466;DHT22;2755;50.728;7.108;2023-06-14T03:43:14;14.50;1.00
5466;DHT22;2755;50.728;7.108;2023-06-14T03:45:39;14.20;1.00
5466;DHT22;2755;50.728;7.108;2023-06-14T03:48:05;14.30;1.00
5466;DHT22;2755;50.728;7.108;2023-06-14T03:52:58;14.90;1.00
5466;DHT22;2755;50.728;7.108;2023-06-14T03:57:51;14.50;1.00
5466;DHT22;2755;50.728;7.108;2023-06-14T04:00:17;14.70;1.00
5466;DHT22;2755;50.728;7.108;2023-06-14T04:02:43;15.20;1.00
5466;DHT22;2755;50.728;7.108;2023-06-14T04:05:09;14.80;1.00
5466;DHT22;2755;50.728;7.108;2023-06-14T04:10:12;14.90;1.00
5466;DHT22;2755;50.728;7.108;2023-06-14T04:12:38;15.00;1.00
5466;DHT22;2755;50.728;7.108;2023-06-14T04:15:04;14.70;1.00
5466;DHT22;2755;50.728;7.108;2023-06-14T04:24:54;14.80;1.00
5466;DHT22;2755;50.728;7.108;2023-06-14T04:27:25;14.90;1.00
5466;DHT22;2755;50.728;7.108;2023-06-14T04:29:52;14.80;1.00
5466;DHT22;2755;50.728;7.108;2023-06-14T04:32:26;14.80;1.00
5466;DHT22;2755;50.728;7.108;2023-06-14T04:34:53;15.10;1.00
5466;DHT22;2755;50.728;7.108;2023-06-14T04:37:20;15.40;1.00
5466;DHT22;2755;50.728;7.108;2023-06-14T04:39:47;15.30;1.00
5466;DHT22;2755;50.728;7.108;2023-06-14T04:42:13;15.60;1.00
5466;DHT22;2755;50.728;7.108;2023-06-14T04:44:41;15.90;1.00
5466;DHT22;2755;50.728;7.108;2023-06-14T04:47:07;16.40;1.00
5466;DHT22;2755;50.728;7.108;2023-06-14T04:52:00;16.10;1.00
5466;DHT22;2755;50.728;7.108;2023-06-14T04:54:27;16.60;1.00
5466;DHT22;2755;50.728;7.108;2023-06-14T05:04:17;17.20;1.00
5466;DHT22;2755;50.728;7.108;2023-06-14T05:09:16;17.80;1.00
5466;DHT22;2755;50.728;7.108;2023-06-14T05:14:11;18.50;1.00
5466;DHT22;2755;50.728;7.108;2023-06-14T05:19:04;18.10;1.00
5466;DHT22;2755;50.728;7.108;2023-06-14T05:21:30;18.70;1.00
5466;DHT22;2755;50.728;7.108;2023-06-14T05:23:57;17.90;1.00
5466;DHT22;2755;50.728;7.108;2023-06-14T05:26:22;19.20;1.00
5466;DHT22;2755;50.728;7.108;2023-06-14T05:28:55;19.20;1.00
5466;DHT22;2755;50.728;7.108;2023-06-14T05:33:48;19.50;1.00
5466;DHT22;2755;50.728;7.108;2023-06-14T05:36:14;19.60;1.00
5466;DHT22;2755;50.728;7.108;2023-06-14T05:41:05;19.70;1.00
5466;DHT22;2755;50.728;7.108;2023-06-14T05:43:31;18.30;1.00
5466;DHT22;2755;50.728;7.108;2023-06-14T05:48:23;20.20;1.00
5466;DHT22;2755;50.728;7.108;2023-06-14T05:50:48;20.20;1.00
5466;DHT22;2755;50.728;7.108;2023-06-14T05:55:40;20.90;1.00
5466;DHT22;2755;50.728;7.108;2023-06-14T06:02:58;20.90;1.00
5466;DHT22;2755;50.728;7.108;2023-06-14T06:05:24;21.60;1.00
5466;DHT22;2755;50.728;7.108;2023-06-14T06:07:51;22.20;1.00
5466;DHT22;2755;50.728;7.108;2023-06-14T06:10:17;22.50;1.00
5466;DHT22;2755;50.728;7.108;2023-06-14T06:12:43;21.80;1.00
5466;DHT22;2755;50.728;7.108;2023-06-14T06:15:09;21.60;1.00
5466;DHT22;2755;50.728;7.108;2023-06-14T06:20:05;22.20;1.00
5466;DHT22;2755;50.728;7.108;2023-06-14T06:22:34;22.10;1.00
5466;DHT22;2755;50.728;7.108;2023-06-14T06:25:09;22.10;1.00
5466;DHT22;2755;50.728;7.108;2023-06-14T06:27:35;22.00;1.00
5466;DHT22;2755;50.728;7.108;2023-06-14T06:30:03;21.80;1.00
5466;DHT22;2755;50.728;7.108;2023-06-14T06:34:55;22.20;1.00
5466;DHT22;2755;50.728;7.108;2023-06-14T06:42:19;22.40;1.00
5466;DHT22;2755;50.728;7.108;2023-06-14T06:44:45;23.30;1.00
5466;DHT22;2755;50.728;7.108;2023-06-14T06:47:11;23.30;1.00
5466;DHT22;2755;50.728;7.108;2023-06-14T06:49:36;21.70;1.00
5466;DHT22;2755;50.728;7.108;2023-06-14T06:52:04;23.10;1.00
5466;DHT22;2755;50.728;7.108;2023-06-14T06:54:30;23.20;1.00
5466;DHT22;2755;50.728;7.108;2023-06-14T06:59:23;23.60;1.00
5466;DHT22;2755;50.728;7.108;2023-06-14T07:01:48;24.20;1.00
5466;DHT22;2755;50.728;7.108;2023-06-14T07:04:14;24.30;1.00
5466;DHT22;2755;50.728;7.108;2023-06-14T07:11:40;23.60;1.00
5466;DHT22;2755;50.728;7.108;2023-06-14T07:16:33;24.20;1.00
5466;DHT22;2755;50.728;7.108;2023-06-14T07:18:59;24.00;1.00
5466;DHT22;2755;50.728;7.108;2023-06-14T07:23:55;24.40;1.00
5466;DHT22;2755;50.728;7.108;2023-06-14T07:28:48;24.60;1.00
5466;DHT22;2755;50.728;7.108;2023-06-14T07:31:15;24.70;1.00
5466;DHT22;2755;50.728;7.108;2023-06-14T07:33:42;23.80;1.00
5466;DHT22;2755;50.728;7.108;2023-06-14T07:38:34;23.60;1.00
5466;DHT22;2755;50.728;7.108;2023-06-14T07:43:26;23.90;1.00
5466;DHT22;2755;50.728;7.108;2023-06-14T07:48:18;26.20;1.00
5466;DHT22;2755;50.728;7.108;2023-06-14T07:53:10;24.90;1.00
5466;DHT22;2755;50.728;7.108;2023-06-14T07:55:36;24.80;1.00
5466;DHT22;2755;50.728;7.108;2023-06-14T07:58:07;25.60;1.00
5466;DHT22;2755;50.728;7.108;2023-06-14T08:00:33;25.30;1.00
5466;DHT22;2755;50.728;7.108;2023-06-14T08:02:59;25.20;1.00
5466;DHT22;2755;50.728;7.108;2023-06-14T08:05:28;25.30;1.00
5466;DHT22;2755;50.728;7.108;2023-06-14T08:07:54;25.90;1.00
5466;DHT22;2755;50.728;7.108;2023-06-14T08:27:30;26.30;1.00
5466;DHT22;2755;50.728;7.108;2023-06-14T08:39:40;26.50;1.00
5466;DHT22;2755;50.728;7.108;2023-06-14T08:44:33;27.10;1.00
5466;DHT22;2755;50.728;7.108;2023-06-14T08:47:00;27.50;1.00
5466;DHT22;2755;50.728;7.108;2023-06-14T08:51:59;27.10;1.00
5466;DHT22;2755;50.728;7.108;2023-06-14T08:54:27;28.10;1.00
5466;DHT22;2755;50.728;7.108;2023-06-14T09:01:50;28.00;1.00
5466;DHT22;2755;50.728;7.108;2023-06-14T09:04:18;28.50;1.00
5466;DHT22;2755;50.728;7.108;2023-06-14T09:06:45;28.00;1.00
5466;DHT22;2755;50.728;7.108;2023-06-14T09:09:11;28.10;1.00
5466;DHT22;2755;50.728;7.108;2023-06-14T09:14:03;29.30;1.00
5466;DHT22;2755;50.728;7.108;2023-06-14T09:16:32;29.40;1.00
5466;DHT22;2755;50.728;7.108;2023-06-14T09:18:58;28.50;1.00
5466;DHT22;2755;50.728;7.108;2023-06-14T09:21:23;29.80;1.00
5466;DHT22;2755;50.728;7.108;2023-06-14T09:23:49;29.70;1.00
5466;DHT22;2755;50.728;7.108;2023-06-14T09:26:17;29.10;1.00
5466;DHT22;2755;50.728;7.108;2023-06-14T09:28:43;26.60;1.00
5466;DHT22;2755;50.728;7.108;2023-06-14T09:31:14;28.70;1.00
5466;DHT22;2755;50.728;7.108;2023-06-14T09:33:45;28.50;1.00
5466;DHT22;2755;50.728;7.108;2023-06-14T09:36:17;28.10;1.00
5466;DHT22;2755;50.728;7.108;2023-06-14T09:38:59;28.10;1.00
5466;DHT22;2755;50.728;7.108;2023-06-14T09:41:39;28.20;1.00
5466;DHT22;2755;50.728;7.108;2023-06-14T09:44:07;27.60;1.00
5466;DHT22;2755;50.728;7.108;2023-06-14T09:48:59;29.30;1.00
5466;DHT22;2755;50.728;7.108;2023-06-14T09:51:27;28.90;1.00
5466;DHT22;2755;50.728;7.108;2023-06-14T09:58:58;29.20;1.00
5466;DHT22;2755;50.728;7.108;2023-06-14T10:01:24;28.00;1.00
5466;DHT22;2755;50.728;7.108;2023-06-14T10:06:22;28.10;1.00
5466;DHT22;2755;50.728;7.108;2023-06-14T10:08:52;27.80;1.00
5466;DHT22;2755;50.728;7.108;2023-06-14T10:13:48;28.00;1.00
5466;DHT22;2755;50.728;7.108;2023-06-14T10:16:20;28.50;1.00
5466;DHT22;2755;50.728;7.108;2023-06-14T10:18:49;28.60;1.00
5466;DHT22;2755;50.728;7.108;2023-06-14T10:21:45;28.70;1.00
5466;DHT22;2755;50.728;7.108;2023-06-14T10:29:15;28.90;1.00
5466;DHT22;2755;50.728;7.108;2023-06-14T10:31:46;26.20;1.00
5466;DHT22;2755;50.728;7.108;2023-06-14T10:34:20;27.60;1.00
5466;DHT22;2755;50.728;7.108;2023-06-14T10:37:33;27.30;1.00
5466;DHT22;2755;50.728;7.108;2023-06-14T10:39:52;27.20;1.00
5466;DHT22;2755;50.728;7.108;2023-06-14T10:42:19;26.80;1.00
5466;DHT22;2755;50.728;7.108;2023-06-14T10:44:49;27.10;1.00
5466;DHT22;2755;50.728;7.108;2023-06-14T10:49:54;28.00;1.00
5466;DHT22;2755;50.728;7.108;2023-06-14T10:52:25;27.30;1.00
5466;DHT22;2755;50.728;7.108;2023-06-14T10:55:22;26.70;1.00
5466;DHT22;2755;50.728;7.108;2023-06-14T10:57:53;26.50;1.00
5466;DHT22;2755;50.728;7.108;2023-06-14T11:00:22;27.00;1.00
5466;DHT22;2755;50.728;7.108;2023-06-14T11:05:51;26.80;1.00
5466;DHT22;2755;50.728;7.108;2023-06-14T11:10:59;26.30;1.00
5466;DHT22;2755;50.728;7.108;2023-06-14T11:13:26;26.20;1.00
5466;DHT22;2755;50.728;7.108;2023-06-14T11:15:52;26.30;1.00
5466;DHT22;2755;50.728;7.108;2023-06-14T11:23:21;27.40;1.00
5466;DHT22;2755;50.728;7.108;2023-06-14T11:25:51;27.40;1.00
5466;DHT22;2755;50.728;7.108;2023-06-14T11:28:16;26.90;1.00
5466;DHT22;2755;50.728;7.108;2023-06-14T11:30:42;27.70;1.00
5466;DHT22;2755;50.728;7.108;2023-06-14T11:33:10;26.40;1.00
5466;DHT22;2755;50.728;7.108;2023-06-14T11:42:59;27.10;1.00
5466;DHT22;2755;50.728;7.108;2023-06-14T11:47:53;26.70;1.00
5466;DHT22;2755;50.728;7.108;2023-06-14T11:50:19;26.90;1.00
5466;DHT22;2755;50.728;7.108;2023-06-14T11:55:11;26.50;1.00
5466;DHT22;2755;50.728;7.108;2023-06-14T12:00:06;27.20;1.00
5466;DHT22;2755;50.728;7.108;2023-06-14T12:05:08;27.60;1.00
5466;DHT22;2755;50.728;7.108;2023-06-14T12:07:36;27.80;1.00
5466;DHT22;2755;50.728;7.108;2023-06-14T12:12:30;28.30;1.00
5466;DHT22;2755;50.728;7.108;2023-06-14T12:14:56;28.10;1.00
5466;DHT22;2755;50.728;7.108;2023-06-14T12:17:22;28.00;1.00
5466;DHT22;2755;50.728;7.108;2023-06-14T12:19:49;28.30;1.00
5466;DHT22;2755;50.728;7.108;2023-06-14T12:27:11;28.20;1.00
5466;DHT22;2755;50.728;7.108;2023-06-14T12:36:58;28.30;1.00
5466;DHT22;2755;50.728;7.108;2023-06-14T12:44:17;29.10;1.00
5466;DHT22;2755;50.728;7.108;2023-06-14T12:49:10;28.20;1.00
5466;DHT22;2755;50.728;7.108;2023-06-14T12:51:37;29.20;1.00
5466;DHT22;2755;50.728;7.108;2023-06-14T12:54:03;29.50;1.00
5466;DHT22;2755;50.728;7.108;2023-06-14T13:06:13;28.40;1.00
5466;DHT22;2755;50.728;7.108;2023-06-14T13:08:39;28.30;1.00
5466;DHT22;2755;50.728;7.108;2023-06-14T13:11:04;28.60;1.00
5466;DHT22;2755;50.728;7.108;2023-06-14T13:15:56;29.50;1.00
5466;DHT22;2755;50.728;7.108;2023-06-14T13:18:21;28.60;1.00
5466;DHT22;2755;50.728;7.108;2023-06-14T13:20:47;29.10;1.00
5466;DHT22;2755;50.728;7.108;2023-06-14T13:23:13;26.30;1.00
5466;DHT22;2755;50.728;7.108;2023-06-14T13:25:39;25.70;1.00
5466;DHT22;2755;50.728;7.108;2023-06-14T13:28:05;27.80;1.00
5466;DHT22;2755;50.728;7.108;2023-06-14T13:37:49;27.00;1.00
5466;DHT22;2755;50.728;7.108;2023-06-14T13:40:15;26.50;1.00
5466;DHT22;2755;50.728;7.108;2023-06-14T13:42:41;25.70;1.00
5466;DHT22;2755;50.728;7.108;2023-06-14T13:45:08;26.70;1.00
5466;DHT22;2755;50.728;7.108;2023-06-14T13:47:33;27.40;1.00
5466;DHT22;2755;50.728;7.108;2023-06-14T13:49:59;26.10;1.00
5466;DHT22;2755;50.728;7.108;2023-06-14T14:02:10;25.40;1.00
5466;DHT22;2755;50.728;7.108;2023-06-14T14:07:04;25.80;1.00
5466;DHT22;2755;50.728;7.108;2023-06-14T14:09:30;25.00;1.00
5466;DHT22;2755;50.728;7.108;2023-06-14T14:14:21;25.30;1.00
5466;DHT22;2755;50.728;7.108;2023-06-14T14:19:17;25.40;1.00
5466;DHT22;2755;50.728;7.108;2023-06-14T14:21:44;25.30;1.00
5466;DHT22;2755;50.728;7.108;2023-06-14T14:24:10;24.90;1.00
5466;DHT22;2755;50.728;7.108;2023-06-14T14:26:35;24.10;1.00
5466;DHT22;2755;50.728;7.108;2023-06-14T14:31:28;24.10;1.00
5466;DHT22;2755;50.728;7.108;2023-06-14T14:38:45;24.40;1.00
5466;DHT22;2755;50.728;7.108;2023-06-14T14:41:12;24.70;1.00
5466;DHT22;2755;50.728;7.108;2023-06-14T14:46:04;24.80;1.00
5466;DHT22;2755;50.728;7.108;2023-06-14T14:50:56;24.70;1.00
5466;DHT22;2755;50.728;7.108;2023-06-14T15:00:46;23.90;1.00
5466;DHT22;2755;50.728;7.108;2023-06-14T15:05:38;24.10;1.00
5466;DHT22;2755;50.728;7.108;2023-06-14T15:08:04;24.00;1.00
5466;DHT22;2755;50.728;7.108;2023-06-14T15:13:01;24.40;1.00
5466;DHT22;2755;50.728;7.108;2023-06-14T15:15:27;24.90;1.00
5466;DHT22;2755;50.728;7.108;2023-06-14T15:17:53;24.30;1.00
5466;DHT22;2755;50.728;7.108;2023-06-14T15:20:18;24.70;1.00
5466;DHT22;2755;50.728;7.108;2023-06-14T15:30:02;24.80;1.00
5466;DHT22;2755;50.728;7.108;2023-06-14T15:34:54;25.80;1.00
5466;DHT22;2755;50.728;7.108;2023-06-14T15:37:20;24.90;1.00
5466;DHT22;2755;50.728;7.108;2023-06-14T15:42:12;25.10;1.00
5466;DHT22;2755;50.728;7.108;2023-06-14T15:47:03;24.40;1.00
5466;DHT22;2755;50.728;7.108;2023-06-14T15:49:29;24.20;1.00
5466;DHT22;2755;50.728;7.108;2023-06-14T15:59:15;24.00;1.00
5466;DHT22;2755;50.728;7.108;2023-06-14T16:01:41;24.30;1.00
5466;DHT22;2755;50.728;7.108;2023-06-14T16:28:29;24.90;1.00
5466;DHT22;2755;50.728;7.108;2023-06-14T16:53:10;23.30;1.00
5466;DHT22;2755;50.728;7.108;2023-06-14T17:02:54;24.00;1.00
5466;DHT22;2755;50.728;7.108;2023-06-14T17:05:21;23.50;1.00
5466;DHT22;2755;50.728;7.108;2023-06-14T17:07:47;24.60;1.00
5466;DHT22;2755;50.728;7.108;2023-06-14T17:12:39;24.80;1.00
5466;DHT22;2755;50.728;7.108;2023-06-14T17:24:50;23.90;1.00
5466;DHT22;2755;50.728;7.108;2023-06-14T17:27:16;23.30;1.00
5466;DHT22;2755;50.728;7.108;2023-06-14T17:29:42;23.80;1.00
5466;DHT22;2755;50.728;7.108;2023-06-14T17:34:34;23.60;1.00
5466;DHT22;2755;50.728;7.108;2023-06-14T17:39:27;23.20;1.00
5466;DHT22;2755;50.728;7.108;2023-06-14T17:41:52;23.70;1.00
5466;DHT22;2755;50.728;7.108;2023-06-14T17:44:18;24.10;1.00
5466;DHT22;2755;50.728;7.108;2023-06-14T17:46:44;23.50;1.00
5466;DHT22;2755;50.728;7.108;2023-06-14T17:49:10;23.70;1.00
5466;DHT22;2755;50.728;7.108;2023-06-14T17:54:02;24.00;1.00
5466;DHT22;2755;50.728;7.108;2023-06-14T17:56:28;23.60;1.00
5466;DHT22;2755;50.728;7.108;2023-06-14T17:58:54;23.10;1.00
5466;DHT22;2755;50.728;7.108;2023-06-14T18:01:21;23.20;1.00
5466;DHT22;2755;50.728;7.108;2023-06-14T18:03:47;23.00;1.00
5466;DHT22;2755;50.728;7.108;2023-06-14T18:06:13;23.30;1.00
5466;DHT22;2755;50.728;7.108;2023-06-14T18:08:39;23.70;1.00
5466;DHT22;2755;50.728;7.108;2023-06-14T18:15:57;22.30;1.00
5466;DHT22;2755;50.728;7.108;2023-06-14T18:20:50;22.10;1.00
5466;DHT22;2755;50.728;7.108;2023-06-14T18:23:15;22.60;1.00
5466;DHT22;2755;50.728;7.108;2023-06-14T18:25:41;21.60;1.00
5466;DHT22;2755;50.728;7.108;2023-06-14T18:28:09;22.80;1.00
5466;DHT22;2755;50.728;7.108;2023-06-14T18:30:35;22.20;1.00
5466;DHT22;2755;50.728;7.108;2023-06-14T18:33:01;23.00;1.00
5466;DHT22;2755;50.728;7.108;2023-06-14T18:37:54;24.00;1.00
5466;DHT22;2755;50.728;7.108;2023-06-14T18:40:20;22.60;1.00
5466;DHT22;2755;50.728;7.108;2023-06-14T18:42:46;22.70;1.00
5466;DHT22;2755;50.728;7.108;2023-06-14T18:45:12;21.80;1.00
5466;DHT22;2755;50.728;7.108;2023-06-14T18:47:40;22.70;1.00
5466;DHT22;2755;50.728;7.108;2023-06-14T18:50:06;23.00;1.00
5466;DHT22;2755;50.728;7.108;2023-06-14T18:52:32;22.30;1.00
5466;DHT22;2755;50.728;7.108;2023-06-14T18:54:57;21.10;1.00
5466;DHT22;2755;50.728;7.108;2023-06-14T18:57:23;22.70;1.00
5466;DHT22;2755;50.728;7.108;2023-06-14T18:59:50;22.10;1.00
5466;DHT22;2755;50.728;7.108;2023-06-14T19:02:16;22.70;1.00
5466;DHT22;2755;50.728;7.108;2023-06-14T19:04:42;22.30;1.00
5466;DHT22;2755;50.728;7.108;2023-06-14T19:09:34;22.70;1.00
5466;DHT22;2755;50.728;7.108;2023-06-14T19:12:00;22.00;1.00
5466;DHT22;2755;50.728;7.108;2023-06-14T19:14:25;22.00;1.00
5466;DHT22;2755;50.728;7.108;2023-06-14T19:16:51;21.80;1.00
5466;DHT22;2755;50.728;7.108;2023-06-14T19:19:18;21.90;1.00
5466;DHT22;2755;50.728;7.108;2023-06-14T19:21:45;22.30;1.00
5466;DHT22;2755;50.728;7.108;2023-06-14T19:24:10;21.90;1.00
5466;DHT22;2755;50.728;7.108;2023-06-14T19:33:58;21.10;1.00
5466;DHT22;2755;50.728;7.108;2023-06-14T19:36:24;21.80;1.00
5466;DHT22;2755;50.728;7.108;2023-06-14T19:38:50;22.00;1.00
5466;DHT22;2755;50.728;7.108;2023-06-14T19:41:17;21.60;1.00
5466;DHT22;2755;50.728;7.108;2023-06-14T19:43:43;21.50;1.00
5466;DHT22;2755;50.728;7.108;2023-06-14T19:46:09;21.10;1.00
5466;DHT22;2755;50.728;7.108;2023-06-14T19:48:34;21.70;1.00
5466;DHT22;2755;50.728;7.108;2023-06-14T19:51:02;21.10;1.00
5466;DHT22;2755;50.728;7.108;2023-06-14T19:53:28;21.30;1.00
5466;DHT22;2755;50.728;7.108;2023-06-14T19:55:54;21.20;1.00
5466;DHT22;2755;50.728;7.108;2023-06-14T19:58:20;20.90;1.00
5466;DHT22;2755;50.728;7.108;2023-06-14T20:00:46;21.30;1.00
5466;DHT22;2755;50.728;7.108;2023-06-14T20:03:11;21.10;1.00
5466;DHT22;2755;50.728;7.108;2023-06-14T20:05:38;20.70;1.00
5466;DHT22;2755;50.728;7.108;2023-06-14T20:08:04;20.90;1.00
5466;DHT22;2755;50.728;7.108;2023-06-14T20:10:31;21.30;1.00
5466;DHT22;2755;50.728;7.108;2023-06-14T20:12:56;21.10;1.00
5466;DHT22;2755;50.728;7.108;2023-06-14T20:15:22;21.20;1.00
5466;DHT22;2755;50.728;7.108;2023-06-14T20:17:48;20.90;1.00
5466;DHT22;2755;50.728;7.108;2023-06-14T20:20:14;20.60;1.00
5466;DHT22;2755;50.728;7.108;2023-06-14T20:22:40;20.20;1.00
5466;DHT22;2755;50.728;7.108;2023-06-14T20:25:08;20.80;1.00
5466;DHT22;2755;50.728;7.108;2023-06-14T20:27:35;20.80;1.00
5466;DHT22;2755;50.728;7.108;2023-06-14T20:30:02;20.70;1.00
5466;DHT22;2755;50.728;7.108;2023-06-14T20:32:28;20.30;1.00
5466;DHT22;2755;50.728;7.108;2023-06-14T20:34:54;20.80;1.00
5466;DHT22;2755;50.728;7.108;2023-06-14T20:37:20;19.90;1.00
5466;DHT22;2755;50.728;7.108;2023-06-14T20:39:46;21.30;1.00
5466;DHT22;2755;50.728;7.108;2023-06-14T20:42:13;20.50;1.00
5466;DHT22;2755;50.728;7.108;2023-06-14T20:44:39;20.20;1.00
5466;DHT22;2755;50.728;7.108;2023-06-14T20:47:08;20.10;1.00
5466;DHT22;2755;50.728;7.108;2023-06-14T20:49:41;20.20;1.00
5466;DHT22;2755;50.728;7.108;2023-06-14T20:52:10;20.10;1.00
5466;DHT22;2755;50.728;7.108;2023-06-14T20:54:36;20.10;1.00
5466;DHT22;2755;50.728;7.108;2023-06-14T20:57:03;20.00;1.00
5466;DHT22;2755;50.728;7.108;2023-06-14T21:01:58;19.80;1.00
5466;DHT22;2755;50.728;7.108;2023-06-14T21:04:23;20.40;1.00
5466;DHT22;2755;50.728;7.108;2023-06-14T21:06:49;19.80;1.00
5466;DHT22;2755;50.728;7.108;2023-06-14T21:09:15;20.10;1.00
5466;DHT22;2755;50.728;7.108;2023-06-14T21:11:40;20.00;1.00
5466;DHT22;2755;50.728;7.108;2023-06-14T21:14:07;19.90;1.00
5466;DHT22;2755;50.728;7.108;2023-06-14T21:16:33;19.90;1.00
5466;DHT22;2755;50.728;7.108;2023-06-14T21:18:58;19.30;1.00
5466;DHT22;2755;50.728;7.108;2023-06-14T21:21:24;20.20;1.00
5466;DHT22;2755;50.728;7.108;2023-06-14T21:31:13;19.30;1.00
5466;DHT22;2755;50.728;7.108;2023-06-14T21:36:06;18.90;1.00
5466;DHT22;2755;50.728;7.108;2023-06-14T21:38:32;18.60;1.00
5466;DHT22;2755;50.728;7.108;2023-06-14T21:43:23;18.50;1.00
5466;DHT22;2755;50.728;7.108;2023-06-14T21:45:49;18.60;1.00
5466;DHT22;2755;50.728;7.108;2023-06-14T21:55:33;18.50;1.00
5466;DHT22;2755;50.728;7.108;2023-06-14T22:00:24;19.20;1.00
5466;DHT22;2755;50.728;7.108;2023-06-14T22:02:50;17.90;1.00
5466;DHT22;2755;50.728;7.108;2023-06-14T22:05:17;18.10;1.00
5466;DHT22;2755;50.728;7.108;2023-06-14T22:07:43;18.70;1.00
5466;DHT22;2755;50.728;7.108;2023-06-14T22:10:09;19.60;1.00
5466;DHT22;2755;50.728;7.108;2023-06-14T22:12:36;17.70;1.00
5466;DHT22;2755;50.728;7.108;2023-06-14T22:15:05;17.80;1.00
5466;DHT22;2755;50.728;7.108;2023-06-14T22:17:32;17.30;1.00
5466;DHT22;2755;50.728;7.108;2023-06-14T22:19:58;18.10;1.00
5466;DHT22;2755;50.728;7.108;2023-06-14T22:22:24;18.30;1.00
5466;DHT22;2755;50.728;7.108;2023-06-14T22:24:53;17.90;1.00
5466;DHT22;2755;50.728;7.108;2023-06-14T22:27:20;17.50;1.00
5466;DHT22;2755;50.728;7.108;2023-06-14T22:29:50;17.90;1.00
5466;DHT22;2755;50.728;7.108;2023-06-14T22:32:31;17.50;1.00
5466;DHT22;2755;50.728;7.108;2023-06-14T22:34:58;17.80;1.00
5466;DHT22;2755;50.728;7.108;2023-06-14T22:40:06;17.20;1.00
5466;DHT22;2755;50.728;7.108;2023-06-14T22:42:46;17.60;1.00
5466;DHT22;2755;50.728;7.108;2023-06-14T22:45:17;17.30;1.00
5466;DHT22;2755;50.728;7.108;2023-06-14T22:47:48;16.40;1.00
5466;DHT22;2755;50.728;7.108;2023-06-14T22:50:15;17.10;1.00
5466;DHT22;2755;50.728;7.108;2023-06-14T22:52:42;17.10;1.00
5466;DHT22;2755;50.728;7.108;2023-06-14T22:55:12;16.50;1.00
5466;DHT22;2755;50.728;7.108;2023-06-14T22:57:39;16.80;1.00
5466;DHT22;2755;50.728;7.108;2023-06-14T23:00:07;16.70;1.00
5466;DHT22;2755;50.728;7.108;2023-06-14T23:02:40;16.20;1.00
5466;DHT22;2755;50.728;7.108;2023-06-14T23:05:06;16.50;1.00
5466;DHT22;2755;50.728;7.108;2023-06-14T23:07:34;16.00;1.00
5466;DHT22;2755;50.728;7.108;2023-06-14T23:10:02;17.00;1.00
5466;DHT22;2755;50.728;7.108;2023-06-14T23:12:28;16.30;1.00
5466;DHT22;2755;50.728;7.108;2023-06-14T23:14:57;16.60;1.00
5466;DHT22;2755;50.728;7.108;2023-06-14T23:17:27;16.70;1.00